createdAt,value
2022-12-05T00:03:06.377Z,11.00
2022-12-05T00:08:09.840Z,10.20
2022-12-05T00:13:13.306Z,7.80
2022-12-05T00:18:16.719Z,8.50
2022-12-05T00:23:20.029Z,8.60
2022-12-05T00:28:23.444Z,9.20
2022-12-05T00:33:26.856Z,8.80
2022-12-05T00:38:30.370Z,9.00
2022-12-05T00:43:34.198Z,9.10
2022-12-05T00:48:38.017Z,8.80
2022-12-05T00:53:42.145Z,8.60
2022-12-05T00:58:46.275Z,7.40
2022-12-05T01:03:51.644Z,8.50
2022-12-05T01:08:56.544Z,6.00
2022-12-05T01:14:00.202Z,8.10
2022-12-05T01:19:09.351Z,8.50
2022-12-05T01:24:12.866Z,7.60
2022-12-05T01:29:18.934Z,9.00
2022-12-05T01:34:22.767Z,9.10
2022-12-05T01:39:26.589Z,8.00
2022-12-05T01:44:29.898Z,8.60
2022-12-05T01:49:42.486Z,9.20
2022-12-05T01:54:48.482Z,9.70
2022-12-05T01:59:56.241Z,8.40
2022-12-05T02:05:14.988Z,7.70
2022-12-05T02:10:19.117Z,7.80
2022-12-05T02:15:24.987Z,7.60
2022-12-05T02:21:39.468Z,7.80
2022-12-05T02:27:01.004Z,8.90
2022-12-05T02:32:12.814Z,8.10
2022-12-05T02:37:23.297Z,8.30
2022-12-05T02:42:42.377Z,6.70
2022-12-05T02:47:53.256Z,8.20
2022-12-05T02:53:01.281Z,7.70
2022-12-05T02:58:11.660Z,9.40
2022-12-05T03:03:18.672Z,9.00
2022-12-05T03:08:28.725Z,9.70
2022-12-05T03:13:46.376Z,9.20
2022-12-05T03:18:57.055Z,9.40
2022-12-05T03:24:07.072Z,9.70
2022-12-05T03:29:37.063Z,8.80
2022-12-05T03:34:51.941Z,8.90
2022-12-05T03:40:19.742Z,8.40
2022-12-05T03:45:32.150Z,9.90
2022-12-05T03:50:40.274Z,8.70
2022-12-05T03:55:47.783Z,9.90
2022-12-05T04:00:54.504Z,9.40
2022-12-05T04:06:01.819Z,10.40
2022-12-05T04:11:16.046Z,9.80
2022-12-05T04:16:50.282Z,10.80
2022-12-05T04:21:57.370Z,9.20
2022-12-05T04:27:10.931Z,10.60
2022-12-05T04:32:15.063Z,8.80
2022-12-05T04:37:24.246Z,9.20
2022-12-05T04:42:31.625Z,9.90
2022-12-05T04:47:54.487Z,9.00
2022-12-05T04:52:59.860Z,10.20
2022-12-05T04:58:18.308Z,10.10
2022-12-05T05:03:28.387Z,10.80
2022-12-05T05:08:31.795Z,10.20
2022-12-05T05:13:35.411Z,10.00
2022-12-05T05:18:38.823Z,11.80
2022-12-05T05:23:42.133Z,10.30
2022-12-05T05:28:46.776Z,11.20
2022-12-05T05:33:55.490Z,11.60
2022-12-05T05:39:01.423Z,10.60
2022-12-05T05:44:06.641Z,12.70
2022-12-05T05:49:10.989Z,13.20
2022-12-05T05:59:17.500Z,11.60
2022-12-05T06:04:20.966Z,16.00
2022-12-05T06:09:24.526Z,12.10
2022-12-05T06:14:27.938Z,13.10
2022-12-05T06:19:31.356Z,11.50
2022-12-05T06:24:34.662Z,11.50
2022-12-05T06:29:38.178Z,12.20
2022-12-05T06:34:41.590Z,11.90
2022-12-05T06:39:45.004Z,12.50
2022-12-05T06:44:48.420Z,12.30
2022-12-05T06:49:51.833Z,12.50
2022-12-05T06:54:55.149Z,12.40
2022-12-05T07:00:16.994Z,12.60
2022-12-05T07:05:20.605Z,12.10
2022-12-05T07:10:23.918Z,11.10
2022-12-05T07:15:27.249Z,10.80
2022-12-05T07:21:03.446Z,15.50
2022-12-05T07:25:54.838Z,17.20
2022-12-05T07:31:19.099Z,20.70
2022-12-05T07:36:24.098Z,14.90
2022-12-05T07:41:30.467Z,16.90
2022-12-05T07:46:33.681Z,13.30
2022-12-05T07:51:37.606Z,12.20
2022-12-05T07:56:46.171Z,14.00
2022-12-05T08:01:51.287Z,10.90
2022-12-05T08:06:54.810Z,8.30
2022-12-05T08:11:58.223Z,9.70
2022-12-05T08:17:01.784Z,9.90
2022-12-05T08:22:05.457Z,9.80
2022-12-05T08:27:08.668Z,10.50
2022-12-05T08:32:12.079Z,9.20
2022-12-05T08:37:15.604Z,10.50
2022-12-05T08:42:19.007Z,11.20
2022-12-05T08:47:22.421Z,13.00
2022-12-05T08:52:25.937Z,12.20
2022-12-05T08:57:29.349Z,11.40
2022-12-05T09:02:34.347Z,10.60
2022-12-05T09:07:38.248Z,10.50
2022-12-05T09:12:41.739Z,9.40
2022-12-05T09:17:45.564Z,11.90
2022-12-05T09:22:48.974Z,8.20
2022-12-05T09:27:54.847Z,8.80
2022-12-05T09:32:58.157Z,7.40
2022-12-05T09:38:01.568Z,9.10
2022-12-05T09:43:08.669Z,9.80
2022-12-05T09:48:15.849Z,10.00
2022-12-05T09:53:34.338Z,8.80
2022-12-05T09:58:46.863Z,10.80
2022-12-05T10:04:24.203Z,12.60
2022-12-05T10:09:51.035Z,9.50
2022-12-05T10:15:16.261Z,11.80
2022-12-05T10:20:27.352Z,9.20
2022-12-05T10:25:33.735Z,8.70
2022-12-05T10:30:42.228Z,8.40
2022-12-05T10:35:45.578Z,8.40
2022-12-05T10:40:53.087Z,9.50
2022-12-05T10:45:56.908Z,8.10
2022-12-05T10:51:01.246Z,6.70
2022-12-05T11:01:37.507Z,9.60
2022-12-05T11:07:00.543Z,9.20
2022-12-05T11:12:15.006Z,10.50
2022-12-05T11:17:25.794Z,10.80
2022-12-05T11:22:34.636Z,11.10
2022-12-05T11:27:37.946Z,10.20
2022-12-05T11:32:41.254Z,10.60
2022-12-05T11:38:03.410Z,10.60
2022-12-05T11:43:33.034Z,10.90
2022-12-05T11:49:03.377Z,9.10
2022-12-05T11:54:09.560Z,9.40
2022-12-05T11:59:50.860Z,10.80
2022-12-05T12:05:14.345Z,10.30
2022-12-05T12:10:37.518Z,9.50
2022-12-05T12:16:22.338Z,9.20
2022-12-05T12:22:07.802Z,10.00
2022-12-05T12:27:47.666Z,10.70
2022-12-05T12:33:11.986Z,10.10
2022-12-05T12:38:51.285Z,9.80
2022-12-05T12:43:58.143Z,11.10
2022-12-05T12:49:28.670Z,14.40
2022-12-05T12:55:07.313Z,10.80
2022-12-05T13:00:32.634Z,11.20
2022-12-05T13:05:42.702Z,10.30
2022-12-05T13:10:48.485Z,10.10
2022-12-05T13:15:55.880Z,10.70
2022-12-05T13:21:02.156Z,10.10
2022-12-05T13:26:11.307Z,10.80
2022-12-05T13:31:17.309Z,10.50
2022-12-05T13:36:42.091Z,14.00
2022-12-05T13:47:33.977Z,30.80
2022-12-05T13:53:06.060Z,24.10
2022-12-05T13:58:24.538Z,13.00
2022-12-05T14:03:34.185Z,11.30
2022-12-05T14:08:40.773Z,11.90
2022-12-05T14:13:45.503Z,12.90
2022-12-05T14:19:37.263Z,12.60
2022-12-05T14:24:57.778Z,11.70
2022-12-05T14:30:34.014Z,13.80
2022-12-05T14:35:55.600Z,15.20
2022-12-05T14:41:15.194Z,12.00
2022-12-05T14:46:31.439Z,13.80
2022-12-05T14:51:34.823Z,13.90
2022-12-05T14:56:44.345Z,14.10
2022-12-05T15:01:52.779Z,14.00
2022-12-05T15:07:03.489Z,15.70
2022-12-05T15:12:22.775Z,13.20
2022-12-05T15:17:30.796Z,12.40
2022-12-05T15:22:37.284Z,12.90
2022-12-05T15:27:40.593Z,13.10
2022-12-05T15:32:44.823Z,13.50
2022-12-05T15:37:58.579Z,13.60
2022-12-05T15:43:01.993Z,12.20
2022-12-05T15:48:08.482Z,13.50
2022-12-05T15:53:14.737Z,14.70
2022-12-05T15:58:27.717Z,12.70
2022-12-05T16:03:46.879Z,13.30
2022-12-05T16:08:51.886Z,14.90
2022-12-05T16:13:58.405Z,11.90
2022-12-05T16:19:25.075Z,13.20
2022-12-05T16:24:31.582Z,14.60
2022-12-05T16:29:36.102Z,12.70
2022-12-05T16:34:39.405Z,14.40
2022-12-05T16:39:46.314Z,13.60
2022-12-05T16:45:05.585Z,15.90
2022-12-05T16:50:44.532Z,15.40
2022-12-05T16:55:48.870Z,16.10
2022-12-05T17:00:52.588Z,15.10
2022-12-05T17:05:56.410Z,15.70
2022-12-05T17:11:02.119Z,17.30
2022-12-05T17:16:05.614Z,19.30
2022-12-05T17:21:18.120Z,18.30
2022-12-05T17:26:22.862Z,17.20
2022-12-05T17:31:26.905Z,17.20
2022-12-05T17:36:30.308Z,17.10
2022-12-05T17:41:33.822Z,18.50
2022-12-05T17:46:37.188Z,20.50
2022-12-05T17:52:05.519Z,19.00
2022-12-05T17:57:05.258Z,18.10
2022-12-05T18:02:11.963Z,18.40
2022-12-05T18:07:15.872Z,18.00
2022-12-05T18:12:19.155Z,19.80
2022-12-05T18:17:23.619Z,22.40
2022-12-05T18:27:31.498Z,22.00
2022-12-05T18:32:34.894Z,22.90
2022-12-05T18:37:39.012Z,27.30
2022-12-05T18:42:42.628Z,27.50
2022-12-05T18:47:46.043Z,26.00
2022-12-05T18:52:49.663Z,26.90
2022-12-05T18:57:52.874Z,22.70
2022-12-05T19:02:56.386Z,25.80
2022-12-05T19:08:00.187Z,23.70
2022-12-05T19:13:03.722Z,22.80
2022-12-05T19:18:07.036Z,21.10
2022-12-05T19:23:10.448Z,17.30
2022-12-05T19:28:14.576Z,20.20
2022-12-05T19:33:17.887Z,24.90
2022-12-05T19:38:21.199Z,27.80
2022-12-05T19:43:24.609Z,24.50
2022-12-05T19:48:29.662Z,23.30
2022-12-05T19:53:36.662Z,23.10
2022-12-05T19:58:40.380Z,22.80
2022-12-05T20:03:50.961Z,23.50
2022-12-05T20:08:54.787Z,26.00
2022-12-05T20:14:00.413Z,30.80
2022-12-05T20:19:04.887Z,24.70
2022-12-05T20:24:09.789Z,27.80
2022-12-05T20:29:14.497Z,26.00
2022-12-05T20:34:19.338Z,23.70
2022-12-05T20:39:25.096Z,27.90
2022-12-05T20:44:28.616Z,23.00
2022-12-05T20:49:32.021Z,26.80
2022-12-05T20:54:35.538Z,23.90
2022-12-05T20:59:39.157Z,23.90
2022-12-05T21:04:42.672Z,21.10
2022-12-05T21:09:46.190Z,14.70
2022-12-05T21:14:49.569Z,20.90
2022-12-05T21:19:53.113Z,20.20
2022-12-05T21:24:56.631Z,15.00
2022-12-05T21:30:00.519Z,21.10
2022-12-05T21:35:04.685Z,22.10
2022-12-05T21:40:09.123Z,23.00
2022-12-05T21:50:15.745Z,22.40
2022-12-05T21:55:19.258Z,22.40
2022-12-05T22:00:22.571Z,23.40
2022-12-05T22:05:25.981Z,24.30
2022-12-05T22:10:29.294Z,23.20
2022-12-05T22:15:32.816Z,23.60
2022-12-05T22:20:36.220Z,24.80
2022-12-05T22:25:39.736Z,25.10
2022-12-05T22:30:47.451Z,19.60
2022-12-05T22:35:54.494Z,25.20
2022-12-05T22:41:00.483Z,24.60
2022-12-05T22:46:08.845Z,24.30
2022-12-05T22:51:13.085Z,23.90
2022-12-05T22:56:19.165Z,24.70
2022-12-05T23:01:28.114Z,23.20
2022-12-05T23:06:33.262Z,23.50
2022-12-05T23:11:37.084Z,20.60
2022-12-05T23:16:40.505Z,20.50
2022-12-05T23:21:43.501Z,23.10
2022-12-05T23:26:46.601Z,23.10
2022-12-05T23:31:49.676Z,20.50
2022-12-05T23:36:52.712Z,20.40
2022-12-05T23:41:56.127Z,20.80
2022-12-05T23:46:59.264Z,21.30
2022-12-05T23:52:02.336Z,23.00
2022-12-05T23:57:05.952Z,22.60
